Flight Track Log - Related Links

Times and Time Zones

All times are in EDT time to prevent confusion due to time zone crossing. See the DAL2230 flight status page for this flight to view local times or setup timezone preferences in your user account.

Time Position Orientation Groundspeed Altitude Reporting Facility
EDT Latitude Longitude Course Direction KTS MPH feet Rate Location/Type
Mon 07:31:03 AM 26.6603 -81.6889 355° North 238 274 5,900  Level Miami Center
Mon 07:32:03 AM 26.7311 -81.6964 351° North 267 307 8,200 2,150 Climbing Miami Center
Mon 07:33:03 AM 26.8039 -81.7089 351° North 267 307 10,200 1,750 Climbing Miami Center
Mon 07:34:03 AM 26.8847 -81.7239 352° North 278 320 11,700 1,700 Climbing Miami Center
Mon 07:35:03 AM 26.9781 -81.7394 347° North 306 352 13,600 2,050 Climbing Miami Center
Mon 07:36:03 AM 27.0753 -81.7644 344° North 337 388 15,800 1,950 Climbing Miami Center
Mon 07:37:03 AM 27.1744 -81.7967 345° North 358 412 17,500 1,750 Climbing Miami Center
Mon 07:38:03 AM 27.2756 -81.8267 343° North 373 429 19,300 1,900 Climbing Miami Center
Mon 07:39:03 AM 27.3933 -81.8669 341° North 391 450 21,300 1,800 Climbing Miami Center
Mon 07:40:03 AM 27.5044 -81.9092 343° North 405 466 22,900 1,483 Climbing Miami Center
Mon 07:41:57 AM 27.7147 -81.9831 349° North 432 497 25,600 1,448 Climbing Jacksonville Center
Mon 07:42:57 AM 27.8381 -82.0103 357° North 442 509 27,100 1,350 Climbing Jacksonville Center
Mon 07:43:57 AM 27.9675 -82.0183 329° Northwest 450 518 28,300 1,150 Climbing Jacksonville Center
Mon 07:44:57 AM 28.0703 -82.0881 322° Northwest 427 491 29,400 1,250 Climbing Jacksonville Center
Mon 07:45:57 AM 28.1667 -82.1744 330° Northwest 427 491 30,800 1,300 Climbing Jacksonville Center
Mon 07:46:57 AM 28.2736 -82.2444 327° Northwest 432 497 32,000 1,100 Climbing Jacksonville Center
Mon 07:47:57 AM 28.3761 -82.3192 329° Northwest 437 503 33,000 1,150 Climbing Jacksonville Center
Mon 07:48:57 AM 28.4786 -82.3894 329° Northwest 437 503 34,300 1,050 Climbing Jacksonville Center
Mon 07:49:57 AM 28.5811 -82.4600 328° Northwest 437 503 35,100 850 Climbing Jacksonville Center
Mon 07:50:57 AM 28.6836 -82.5328 329° Northwest 437 503 36,000 450 Climbing Jacksonville Center
Mon 07:51:57 AM 28.7819 -82.6011 329° Northwest 426 490 36,000  Level Jacksonville Center
Mon 07:52:57 AM 28.8822 -82.6697 329° Northwest 426 490 36,000  Level Jacksonville Center
Mon 07:53:57 AM 28.9825 -82.7383 328° Northwest 426 490 36,000  Level Jacksonville Center
Mon 07:54:57 AM 29.0828 -82.8094 330° Northwest 426 490 36,000  Level Jacksonville Center
Mon 07:55:57 AM 29.1850 -82.8783 328° Northwest 426 490 36,000  Level Jacksonville Center
Mon 07:56:57 AM 29.2853 -82.9497 329° Northwest 426 490 36,000  Level Jacksonville Center
Mon 07:57:57 AM 29.3875 -83.0189 328° Northwest 426 490 36,000  Level Jacksonville Center
Mon 07:58:58 AM 29.4981 -83.0978 329° Northwest 431 496 36,000  Level Jacksonville Center
Mon 07:59:58 AM 29.6003 -83.1697 327° Northwest 431 496 36,000  Level Jacksonville Center
Mon 08:00:58 AM 29.6981 -83.2417 329° Northwest 430 495 36,000  Level Jacksonville Center
Mon 08:01:58 AM 29.7897 -83.3042 329° Northwest 430 495 36,000  Level Jacksonville Center
Mon 08:02:58 AM 29.8961 -83.3789 329° Northwest 424 488 36,000  Level Jacksonville Center
Mon 08:03:57 AM 29.9958 -83.4489 330° Northwest 424 488 36,000  Level Jacksonville Center
Mon 08:04:58 AM 30.0958 -83.5167 327° Northwest 419 482 36,000  Level Jacksonville Center
Mon 08:05:58 AM 30.1936 -83.5894 328° Northwest 419 482 36,000  Level Jacksonville Center
Mon 08:06:57 AM 30.2892 -83.6575 329° Northwest 414 476 36,000  Level Jacksonville Center
Mon 08:07:58 AM 30.3892 -83.7258 327° Northwest 409 471 36,000  Level Jacksonville Center
Mon 08:08:58 AM 30.4867 -83.7989 329° Northwest 409 471 36,000  Level Jacksonville Center
Mon 08:09:58 AM 30.5739 -83.8600 329° Northwest 409 471 36,000  Level Jacksonville Center
Mon 08:10:58 AM 30.6756 -83.9311 327° Northwest 409 471 36,000  Level Jacksonville Center
Mon 08:11:58 AM 30.7711 -84.0047 329° Northwest 409 471 36,000  Level Jacksonville Center
Mon 08:12:58 AM 30.8708 -84.0736 328° Northwest 409 471 36,000  Level Jacksonville Center
Mon 08:13:58 AM 30.9703 -84.1453 326° Northwest 414 476 36,000  Level Jacksonville Center
Mon 08:14:58 AM 31.0656 -84.2192 328° Northwest 414 476 36,000  Level Jacksonville Center
Mon 08:15:58 AM 31.1650 -84.2911 328° Northwest 414 476 36,000 -100 Level Jacksonville Center
Mon 08:16:58 AM 31.2644 -84.3631 328° Northwest 414 476 35,800 -645 Descending Jacksonville Center
Mon 08:19:04 AM 31.4744 -84.5186 329° Northwest 408 470 34,000 -581 Descending Atlanta Center
Mon 08:20:04 AM 31.5700 -84.5872 328° Northwest 408 470 34,000  Level Atlanta Center
Mon 08:21:04 AM 31.6533 -84.6489 327° Northwest 408 470 34,000  Level Atlanta Center
Mon 08:22:04 AM 31.7469 -84.7203 328° Northwest 403 464 34,000 -99 Level Atlanta Center
Mon 08:23:05 AM 31.8403 -84.7894 339° North 403 464 33,800 -1,140 Descending Atlanta Center
Mon 08:24:05 AM 31.9464 -84.8367 345° North 403 464 31,700 -2,118 Descending Atlanta Center
Mon 08:25:04 AM 32.0589 -84.8722 344° North 408 470 29,600 -2,218 Descending Atlanta Center
Mon 08:26:04 AM 32.1672 -84.9100 346° North 408 470 27,300 -2,200 Descending Atlanta Center
Mon 08:27:04 AM 32.2858 -84.9456 344° North 396 456 25,200 -2,450 Descending Atlanta Center
Mon 08:28:04 AM 32.3964 -84.9833 351° North 403 464 22,400 -2,100 Descending Atlanta Center
Mon 08:29:04 AM 32.5067 -85.0044 358° North 408 470 21,000 -700 Descending Atlanta Center
Mon 08:30:04 AM 32.6133 -85.0081 358° North 392 451 21,000  Level Atlanta Center
Mon 08:31:04 AM 32.7217 -85.0117 356° North 387 445 21,000  Level Atlanta Center
Mon 08:32:04 AM 32.8322 -85.0203 357° North 382 440 21,000 -650 Level Atlanta Center
Mon 08:33:04 AM 32.9386 -85.0264 North 382 440 19,700 -1,650 Descending Atlanta Center
Mon 08:34:04 AM 33.0389 -85.0250 357° North 376 433 17,700 -2,200 Descending Atlanta Center
Mon 08:35:04 AM 33.1347 -85.0311 26° Northeast 360 414 15,300 -1,900 Descending Atlanta Center
Mon 08:36:04 AM 33.2186 -84.9825 48° Northeast 324 373 13,900 -1,600 Descending Atlanta Center
Mon 08:37:04 AM 33.2842 -84.8961 47° Northeast 331 381 12,100 -950 Descending Atlanta Center
Mon 08:38:04 AM 33.3536 -84.8072 49° Northeast 347 399 12,000 -50 Descending Atlanta Center
Mon 08:39:04 AM 33.4167 -84.7208 47° Northeast 354 407 12,000  Level Atlanta Center
Mon 08:40:04 AM 33.4756 -84.6439 49° Northeast 327 376 12,000  Level Atlanta Center
Mon 08:41:04 AM 33.5153 -84.5894 73° East 278 320 12,000 -813 Level Atlanta Center
Mon 08:42:39 AM 33.5500 -84.4500 90° East 270 311 9,900 -1,316 Descending Atlanta TRACON
Mon 08:43:39 AM 33.5500 -84.3667 90° East 259 298 8,600 -1,550 Descending Atlanta TRACON
Mon 08:44:39 AM 33.5500 -84.2833 68° East 247 284 6,800 -1,789 Descending Atlanta TRACON
Mon 08:45:33 AM 33.5667 -84.2333 320° Northwest 206 237 5,200 -1,632 Descending Atlanta TRACON
Mon 08:46:33 AM 33.6000 -84.2667 301° West 155 178 3,700 -1,211 Descending Atlanta TRACON
Mon 08:47:27 AM 33.6167 -84.3000 270° West 157 181 2,900 -850 Descending Atlanta TRACON
Mon 08:48:33 AM 33.6167 -84.3667 270° West 142 163 2,000 -800 Descending Atlanta TRACON
Mon 08:49:27 AM 33.6167 -84.4000 270° West 135 155 1,300 -778 Descending Atlanta TRACON

Login

Don't have an account? Register now (free) for customized features, flight alerts, and more!